createdAt,value
2022-08-12T00:02:04.744Z,16.90
2022-08-12T00:05:10.745Z,16.90
2022-08-12T00:11:12.768Z,16.90
2022-08-12T00:20:31.710Z,16.80
2022-08-12T00:26:46.453Z,16.60
2022-08-12T00:29:51.047Z,16.60
2022-08-12T00:36:01.951Z,16.50
2022-08-12T00:39:07.768Z,16.40
2022-08-12T00:42:00.499Z,16.40
2022-08-12T00:45:09.337Z,16.40
2022-08-12T00:48:25.206Z,16.40
2022-08-12T00:54:19.428Z,16.40
2022-08-12T01:00:41.933Z,16.30
2022-08-12T01:03:59.518Z,16.30
2022-08-12T01:07:20.485Z,16.30
2022-08-12T01:10:29.526Z,16.30
2022-08-12T01:13:58.705Z,16.20
2022-08-12T01:17:00.569Z,16.20
2022-08-12T01:19:59.389Z,16.10
2022-08-12T01:23:15.438Z,16.10
2022-08-12T01:26:10.605Z,16.00
2022-08-12T01:35:19.994Z,16.00
2022-08-12T01:38:04.534Z,16.00
2022-08-12T01:40:57.076Z,16.00
2022-08-12T01:47:21.006Z,16.00
2022-08-12T01:50:33.282Z,15.90
2022-08-12T01:53:48.740Z,15.80
2022-08-12T02:00:04.969Z,15.80
2022-08-12T02:06:12.446Z,15.70
2022-08-12T02:16:11.902Z,15.50
2022-08-12T02:19:22.083Z,15.50
2022-08-12T02:25:24.796Z,15.40
2022-08-12T02:40:20.596Z,15.20
2022-08-12T02:43:22.009Z,15.10
2022-08-12T02:46:23.555Z,15.10
2022-08-12T02:49:18.352Z,15.10
2022-08-12T02:52:00.167Z,15.10
2022-08-12T02:54:38.297Z,15.10
2022-08-12T02:57:32.816Z,15.10
2022-08-12T03:00:37.587Z,15.00
2022-08-12T03:09:39.069Z,15.00
2022-08-12T03:12:34.907Z,14.90
2022-08-12T03:18:31.350Z,14.90
2022-08-12T03:21:57.918Z,14.90
2022-08-12T03:24:37.591Z,14.80
2022-08-12T03:30:23.748Z,14.80
2022-08-12T03:33:02.307Z,14.80
2022-08-12T03:36:11.855Z,14.80
2022-08-12T03:39:35.898Z,14.70
2022-08-12T03:42:48.933Z,14.70
2022-08-12T03:48:21.406Z,14.80
2022-08-12T03:51:07.876Z,14.80
2022-08-12T03:53:54.191Z,14.70
2022-08-12T03:56:41.606Z,14.70
2022-08-12T03:59:27.260Z,14.70
2022-08-12T04:01:57.554Z,14.60
2022-08-12T04:04:27.284Z,14.60
2022-08-12T04:06:55.721Z,14.60
2022-08-12T04:09:24.102Z,14.60
2022-08-12T04:12:11.279Z,14.50
2022-08-12T04:14:40.447Z,14.50
2022-08-12T04:17:09.375Z,14.50
2022-08-12T04:19:38.694Z,14.50
2022-08-12T04:22:06.761Z,14.50
2022-08-12T04:24:36.771Z,14.50
2022-08-12T04:27:12.012Z,14.50
2022-08-12T04:30:21.194Z,14.60
2022-08-12T04:32:29.356Z,14.50
2022-08-12T04:34:57.456Z,14.50
2022-08-12T04:37:25.571Z,14.50
2022-08-12T04:39:54.566Z,14.40
2022-08-12T04:42:26.190Z,14.40
2022-08-12T04:44:54.783Z,14.40
2022-08-12T04:47:24.394Z,14.50
2022-08-12T04:49:52.480Z,14.50
2022-08-12T04:52:21.603Z,14.50
2022-08-12T04:54:49.732Z,14.50
2022-08-12T04:57:17.864Z,14.50
2022-08-12T04:59:49.022Z,14.50
2022-08-12T05:02:21.050Z,14.60
2022-08-12T05:04:52.222Z,14.60
2022-08-12T05:07:20.814Z,14.60
2022-08-12T05:10:00.032Z,14.70
2022-08-12T05:12:35.904Z,14.60
2022-08-12T05:15:16.748Z,14.70
2022-08-12T05:17:47.392Z,14.80
2022-08-12T05:20:16.626Z,14.80
2022-08-12T05:22:45.761Z,14.80
2022-08-12T05:25:15.837Z,14.90
2022-08-12T05:27:55.307Z,15.00
2022-08-12T05:30:28.756Z,15.10
2022-08-12T05:33:00.067Z,15.20
2022-08-12T05:35:28.973Z,15.20
2022-08-12T05:38:10.892Z,15.30
2022-08-12T05:40:39.063Z,15.40
2022-08-12T05:43:07.913Z,15.60
2022-08-12T05:45:40.489Z,15.70
2022-08-12T05:48:11.222Z,15.80
2022-08-12T05:50:39.430Z,15.90
2022-08-12T05:53:07.801Z,16.00
2022-08-12T05:55:37.056Z,16.10
2022-08-12T05:58:06.052Z,16.20
2022-08-12T06:00:34.977Z,16.40
2022-08-12T06:03:06.174Z,16.50
2022-08-12T06:05:52.547Z,16.70
2022-08-12T06:08:24.380Z,16.90
2022-08-12T06:10:52.908Z,17.10
2022-08-12T06:13:26.861Z,17.40
2022-08-12T06:15:56.932Z,17.50
2022-08-12T06:18:29.723Z,17.70
2022-08-12T06:21:01.663Z,17.90
2022-08-12T06:23:30.767Z,18.20
2022-08-12T06:25:59.974Z,18.40
2022-08-12T06:28:30.597Z,18.60
2022-08-12T06:33:59.945Z,19.10
2022-08-12T06:36:38.622Z,19.50
2022-08-12T06:39:14.747Z,19.70
2022-08-12T06:42:02.722Z,19.90
2022-08-12T06:44:50.483Z,20.10
2022-08-12T06:47:19.773Z,20.40
2022-08-12T06:49:49.565Z,20.50
2022-08-12T06:52:21.619Z,20.70
2022-08-12T06:54:49.744Z,20.80
2022-08-12T06:58:06.892Z,20.90
2022-08-12T07:00:08.551Z,21.00
2022-08-12T07:02:37.278Z,21.20
2022-08-12T07:05:07.444Z,21.40
2022-08-12T07:07:39.031Z,21.60
2022-08-12T07:10:08.507Z,21.70
2022-08-12T07:12:37.304Z,21.80
2022-08-12T07:15:06.266Z,22.00
2022-08-12T07:17:37.612Z,22.10
2022-08-12T07:20:29.591Z,22.30
2022-08-12T07:22:58.421Z,22.40
2022-08-12T07:25:37.371Z,22.50
2022-08-12T07:28:16.443Z,22.70
2022-08-12T07:30:46.826Z,22.70
2022-08-12T07:33:16.860Z,22.90
2022-08-12T07:35:48.166Z,23.00
2022-08-12T07:38:29.593Z,23.20
2022-08-12T07:41:02.114Z,23.20
2022-08-12T07:43:31.117Z,23.40
2022-08-12T07:46:00.299Z,23.50
2022-08-12T07:48:28.908Z,23.60
2022-08-12T07:50:58.568Z,23.70
2022-08-12T07:53:26.718Z,23.90
2022-08-12T07:55:54.805Z,24.10
2022-08-12T07:58:24.124Z,24.30
2022-08-12T08:00:54.894Z,24.50
2022-08-12T08:03:23.028Z,24.70
2022-08-12T08:05:51.106Z,24.90
2022-08-12T08:08:23.818Z,25.10
2022-08-12T08:11:15.179Z,25.30
2022-08-12T08:13:43.159Z,25.50
2022-08-12T08:16:11.257Z,25.70
2022-08-12T08:18:39.420Z,25.90
2022-08-12T08:21:09.034Z,26.20
2022-08-12T08:23:58.897Z,26.40
2022-08-12T08:26:32.846Z,26.70
2022-08-12T08:29:00.946Z,26.90
2022-08-12T08:31:29.125Z,27.20
2022-08-12T08:34:09.613Z,27.30
2022-08-12T08:36:45.945Z,27.50
2022-08-12T08:39:18.024Z,27.70
2022-08-12T08:42:17.697Z,27.80
2022-08-12T08:44:57.711Z,28.00
2022-08-12T08:47:26.970Z,28.20
2022-08-12T08:50:00.926Z,28.40
2022-08-12T08:52:39.071Z,28.60
2022-08-12T08:55:13.956Z,28.80
2022-08-12T08:57:44.678Z,29.10
2022-08-12T09:00:17.376Z,29.30
2022-08-12T09:02:49.538Z,29.60
2022-08-12T09:05:27.146Z,29.80
2022-08-12T09:08:08.928Z,30.10
2022-08-12T09:10:45.385Z,30.20
2022-08-12T09:13:29.276Z,30.50
2022-08-12T09:19:05.732Z,30.90
2022-08-12T09:21:54.735Z,31.30
2022-08-12T09:24:22.112Z,31.60
2022-08-12T09:26:51.616Z,31.80
2022-08-12T09:30:08.562Z,32.10
2022-08-12T09:32:29.344Z,32.20
2022-08-12T09:34:57.844Z,32.40
2022-08-12T09:37:26.737Z,32.80
2022-08-12T09:40:05.800Z,33.00
2022-08-12T09:43:15.223Z,33.30
2022-08-12T09:46:20.591Z,33.50
2022-08-12T09:48:40.167Z,33.50
2022-08-12T09:51:16.965Z,33.60
2022-08-12T09:54:08.611Z,33.70
2022-08-12T09:57:00.362Z,34.10
2022-08-12T10:00:17.330Z,34.40
2022-08-12T10:02:45.496Z,34.50
2022-08-12T10:05:09.386Z,34.70
2022-08-12T10:07:41.791Z,35.20
2022-08-12T10:10:22.579Z,35.30
2022-08-12T10:13:14.232Z,35.40
2022-08-12T10:16:02.574Z,35.70
2022-08-12T10:18:35.482Z,36.10
2022-08-12T10:21:07.861Z,36.30
2022-08-12T10:23:39.782Z,36.50
2022-08-12T10:26:37.569Z,36.90
2022-08-12T10:30:01.773Z,36.90
2022-08-12T10:32:45.465Z,36.70
2022-08-12T10:35:09.311Z,36.80
2022-08-12T10:38:35.355Z,36.90
2022-08-12T10:40:31.985Z,36.90
2022-08-12T10:43:19.162Z,37.30
2022-08-12T10:45:49.742Z,37.40
2022-08-12T10:48:34.308Z,37.70
2022-08-12T10:52:03.180Z,37.70
2022-08-12T10:54:00.538Z,37.80
2022-08-12T10:56:34.882Z,37.90
2022-08-12T10:59:05.215Z,38.40
2022-08-12T11:04:19.618Z,38.70
2022-08-12T11:04:39.346Z,38.50
2022-08-12T11:08:34.387Z,38.40
2022-08-12T11:10:02.833Z,38.70
2022-08-12T11:12:54.986Z,39.00
2022-08-12T11:15:33.107Z,38.80
2022-08-12T11:18:18.601Z,38.80
2022-08-12T11:20:49.314Z,38.60
2022-08-12T11:23:25.278Z,38.60
2022-08-12T11:26:07.262Z,38.30
2022-08-12T11:28:37.865Z,38.40
2022-08-12T11:31:12.254Z,38.70
2022-08-12T11:34:04.767Z,38.80
2022-08-12T11:36:32.316Z,38.90
2022-08-12T11:39:08.068Z,38.80
2022-08-12T11:41:40.712Z,38.60
2022-08-12T11:44:34.996Z,38.60
2022-08-12T11:46:59.700Z,38.20
2022-08-12T11:49:31.719Z,37.80
2022-08-12T11:52:02.894Z,37.80
2022-08-12T11:54:31.634Z,37.60
2022-08-12T11:57:02.218Z,37.80
2022-08-12T12:02:20.945Z,38.40
2022-08-12T12:04:52.101Z,38.30
2022-08-12T12:08:36.307Z,38.10
2022-08-12T12:10:12.566Z,37.60
2022-08-12T12:12:41.478Z,37.10
2022-08-12T12:15:11.021Z,36.50
2022-08-12T12:17:43.201Z,36.10
2022-08-12T12:20:13.915Z,35.90
2022-08-12T12:22:45.340Z,35.70
2022-08-12T12:25:14.007Z,35.20
2022-08-12T12:28:05.974Z,34.80
2022-08-12T12:30:34.980Z,34.30
2022-08-12T12:33:03.226Z,33.80
2022-08-12T12:36:07.057Z,33.50
2022-08-12T12:38:21.067Z,33.20
2022-08-12T12:40:54.146Z,32.80
2022-08-12T12:43:28.974Z,32.60
2022-08-12T12:46:11.058Z,32.60
2022-08-12T12:48:44.131Z,32.80
2022-08-12T12:51:22.139Z,33.00
2022-08-12T12:54:10.204Z,33.40
2022-08-12T12:56:42.283Z,34.50
2022-08-12T12:59:56.549Z,35.10
2022-08-12T13:02:02.028Z,35.70
2022-08-12T13:04:37.374Z,36.20
2022-08-12T13:07:06.492Z,36.70
2022-08-12T13:09:36.987Z,36.80
2022-08-12T13:12:09.084Z,37.20
2022-08-12T13:14:39.899Z,37.80
2022-08-12T13:17:09.727Z,38.30
2022-08-12T13:19:45.300Z,38.70
2022-08-12T13:22:21.019Z,39.10
2022-08-12T13:24:55.678Z,39.50
2022-08-12T13:27:35.212Z,40.00
2022-08-12T13:30:06.906Z,40.10
2022-08-12T13:32:39.319Z,40.10
2022-08-12T13:35:20.363Z,40.40
2022-08-12T13:37:59.325Z,40.50
2022-08-12T13:40:34.041Z,40.10
2022-08-12T13:43:07.005Z,39.90
2022-08-12T13:45:36.929Z,39.50
2022-08-12T13:48:06.820Z,39.20
2022-08-12T13:50:37.597Z,39.00
2022-08-12T13:53:24.856Z,38.80
2022-08-12T13:56:01.312Z,38.60
2022-08-12T13:58:34.801Z,38.60
2022-08-12T14:01:06.306Z,38.30
2022-08-12T14:03:49.954Z,38.70
2022-08-12T14:06:20.417Z,38.60
2022-08-12T14:08:50.716Z,38.20
2022-08-12T14:11:25.251Z,37.90
2022-08-12T14:14:03.883Z,37.60
2022-08-12T14:16:47.163Z,37.30
2022-08-12T14:19:22.327Z,36.70
2022-08-12T14:22:01.112Z,36.40
2022-08-12T14:24:40.416Z,35.80
2022-08-12T14:27:11.370Z,35.80
2022-08-12T14:30:05.200Z,35.80
2022-08-12T14:32:40.005Z,35.40
2022-08-12T14:35:09.297Z,34.60
2022-08-12T14:37:56.299Z,34.40
2022-08-12T14:40:28.680Z,34.40
2022-08-12T14:42:59.317Z,34.20
2022-08-12T14:45:44.995Z,34.00
2022-08-12T14:48:18.889Z,34.00
2022-08-12T14:51:09.820Z,34.10
2022-08-12T14:55:38.529Z,34.10
2022-08-12T14:59:57.240Z,32.80
2022-08-12T15:02:21.588Z,32.70
2022-08-12T15:04:58.791Z,32.80
2022-08-12T15:07:33.593Z,33.10
2022-08-12T15:10:31.816Z,33.10
2022-08-12T15:13:07.469Z,33.30
2022-08-12T15:15:43.785Z,33.20
2022-08-12T15:18:15.030Z,33.10
2022-08-12T15:20:43.201Z,33.10
2022-08-12T15:23:18.111Z,33.20
2022-08-12T15:26:02.740Z,33.10
2022-08-12T15:28:34.315Z,33.20
2022-08-12T15:31:21.327Z,33.00
2022-08-12T15:33:55.217Z,32.90
2022-08-12T15:36:53.676Z,32.70
2022-08-12T15:39:16.906Z,32.80
2022-08-12T15:41:49.294Z,32.60
2022-08-12T15:44:38.090Z,32.60
2022-08-12T15:47:09.348Z,32.50
2022-08-12T15:49:54.292Z,32.40
2022-08-12T15:52:28.131Z,32.30
2022-08-12T15:54:58.779Z,32.20
2022-08-12T15:57:27.588Z,32.10
2022-08-12T16:00:07.408Z,32.00
2022-08-12T16:02:47.332Z,32.00
2022-08-12T16:06:12.374Z,32.20
2022-08-12T16:08:15.278Z,32.10
2022-08-12T16:10:47.015Z,31.90
2022-08-12T16:13:32.718Z,31.80
2022-08-12T16:16:23.100Z,31.80
2022-08-12T16:18:59.599Z,31.60
2022-08-12T16:21:52.946Z,31.60
2022-08-12T16:24:19.635Z,31.40
2022-08-12T16:26:51.421Z,31.30
2022-08-12T16:29:38.637Z,31.10
2022-08-12T16:32:19.344Z,31.00
2022-08-12T16:34:55.283Z,30.90
2022-08-12T16:37:32.369Z,30.70
2022-08-12T16:40:14.506Z,30.40
2022-08-12T16:42:54.107Z,30.30
2022-08-12T16:45:32.301Z,30.10
2022-08-12T16:48:34.781Z,29.80
2022-08-12T16:51:09.414Z,29.60
2022-08-12T16:53:43.976Z,29.40
2022-08-12T16:56:15.250Z,29.40
2022-08-12T16:58:43.863Z,29.20
2022-08-12T17:01:14.509Z,29.10
2022-08-12T17:03:47.172Z,29.00
2022-08-12T17:06:27.634Z,28.90
2022-08-12T17:09:02.801Z,28.80
2022-08-12T17:11:31.830Z,28.70
2022-08-12T17:14:00.209Z,28.60
2022-08-12T17:16:30.264Z,28.50
2022-08-12T17:18:59.777Z,28.40
2022-08-12T17:21:40.821Z,28.30
2022-08-12T17:24:30.359Z,28.20
2022-08-12T17:27:09.583Z,28.20
2022-08-12T17:30:02.400Z,28.20
2022-08-12T17:32:36.879Z,28.10
2022-08-12T17:35:29.883Z,28.00
2022-08-12T17:38:11.809Z,27.90
2022-08-12T17:40:41.567Z,27.70
2022-08-12T17:43:57.020Z,27.60
2022-08-12T17:46:02.052Z,27.60
2022-08-12T17:48:34.727Z,27.50
2022-08-12T17:51:15.699Z,27.40
2022-08-12T17:54:10.271Z,27.30
2022-08-12T17:56:37.268Z,27.30
2022-08-12T17:59:12.484Z,27.20
2022-08-12T18:01:45.302Z,27.10
2022-08-12T18:04:22.755Z,27.00
2022-08-12T18:07:06.361Z,27.00
2022-08-12T18:09:41.064Z,27.00
2022-08-12T18:12:33.082Z,27.00
2022-08-12T18:15:08.887Z,26.90
2022-08-12T18:17:39.608Z,26.80
2022-08-12T18:20:15.406Z,26.80
2022-08-12T18:22:45.205Z,26.60
2022-08-12T18:26:12.912Z,26.40
2022-08-12T18:28:30.923Z,26.30
2022-08-12T18:31:03.368Z,26.10
2022-08-12T18:33:41.690Z,26.10
2022-08-12T18:36:22.430Z,26.00
2022-08-12T18:38:55.857Z,26.00
2022-08-12T18:41:35.113Z,25.90
2022-08-12T18:44:09.359Z,25.80
2022-08-12T18:46:55.442Z,25.60
2022-08-12T18:49:30.671Z,25.50
2022-08-12T18:52:05.038Z,25.30
2022-08-12T18:54:36.238Z,25.20
2022-08-12T18:57:16.166Z,25.10
2022-08-12T19:00:02.192Z,25.00
2022-08-12T19:02:40.594Z,24.90
2022-08-12T19:05:11.859Z,24.70
2022-08-12T19:07:57.953Z,24.60
2022-08-12T19:10:31.791Z,24.50
2022-08-12T19:13:24.581Z,24.30
2022-08-12T19:15:57.429Z,24.10
2022-08-12T19:18:29.824Z,24.00
2022-08-12T19:21:06.576Z,23.80
2022-08-12T19:23:40.819Z,23.60
2022-08-12T19:26:10.684Z,23.50
2022-08-12T19:28:44.017Z,23.40
2022-08-12T19:31:55.542Z,23.30
2022-08-12T19:37:27.538Z,23.00
2022-08-12T19:40:07.790Z,22.80
2022-08-12T19:42:44.868Z,22.70
2022-08-12T19:45:23.100Z,22.50
2022-08-12T19:47:51.259Z,22.30
2022-08-12T19:50:20.091Z,22.20
2022-08-12T19:52:50.906Z,22.00
2022-08-12T19:55:21.805Z,21.90
2022-08-12T19:58:03.278Z,21.80
2022-08-12T20:00:40.789Z,21.70
2022-08-12T20:03:10.289Z,21.60
2022-08-12T20:06:07.060Z,21.50
2022-08-12T20:08:39.649Z,21.30
2022-08-12T20:12:13.790Z,21.20
2022-08-12T20:14:07.224Z,21.20
2022-08-12T20:16:56.444Z,21.10
2022-08-12T20:19:53.077Z,21.00
2022-08-12T20:22:24.918Z,20.90
2022-08-12T20:25:01.645Z,20.80
2022-08-12T20:28:03.487Z,20.70
2022-08-12T20:30:20.657Z,20.60
2022-08-12T20:33:18.575Z,20.50
2022-08-12T20:36:06.472Z,20.50
2022-08-12T20:38:46.033Z,20.40
2022-08-12T20:41:19.268Z,20.30
2022-08-12T20:43:49.746Z,20.30
2022-08-12T20:46:19.371Z,20.20
2022-08-12T20:48:54.730Z,20.20
2022-08-12T20:51:27.532Z,20.10
2022-08-12T20:53:59.225Z,20.10
2022-08-12T20:56:34.723Z,20.10
2022-08-12T20:59:05.841Z,20.00
2022-08-12T21:01:46.417Z,20.00
2022-08-12T21:04:36.252Z,20.00
2022-08-12T21:07:09.176Z,19.90
2022-08-12T21:09:41.438Z,19.90
2022-08-12T21:12:31.506Z,19.80
2022-08-12T21:15:23.152Z,19.80
2022-08-12T21:18:00.841Z,19.80
2022-08-12T21:23:59.530Z,19.70
2022-08-12T21:26:30.454Z,19.70
2022-08-12T21:29:01.952Z,19.60
2022-08-12T21:32:39.489Z,19.60
2022-08-12T21:34:29.162Z,19.60
2022-08-12T21:37:12.869Z,19.60
2022-08-12T21:40:13.626Z,19.50
2022-08-12T21:42:43.342Z,19.50
2022-08-12T21:45:48.403Z,19.40
2022-08-12T21:48:02.158Z,19.30
2022-08-12T21:50:32.041Z,19.20
2022-08-12T21:53:10.493Z,19.10
2022-08-12T21:55:39.574Z,19.00
2022-08-12T21:58:11.237Z,19.00
2022-08-12T22:00:40.114Z,19.00
2022-08-12T22:04:04.396Z,19.00
2022-08-12T22:06:59.511Z,18.90
2022-08-12T22:10:03.914Z,18.90
2022-08-12T22:15:55.229Z,18.80
2022-08-12T22:18:50.300Z,18.80
2022-08-12T22:21:22.116Z,18.80
2022-08-12T22:24:05.325Z,18.70
2022-08-12T22:26:37.979Z,18.60
2022-08-12T22:29:36.086Z,18.60
2022-08-12T22:32:05.458Z,18.60
2022-08-12T22:35:11.579Z,18.60
2022-08-12T22:37:50.476Z,18.50
2022-08-12T22:40:21.977Z,18.60
2022-08-12T22:43:15.363Z,18.50
2022-08-12T22:46:01.825Z,18.50
2022-08-12T22:48:37.394Z,18.50
2022-08-12T22:51:59.979Z,18.50
2022-08-12T22:55:02.202Z,18.50
2022-08-12T23:01:02.273Z,18.40
2022-08-12T23:03:54.983Z,18.40
2022-08-12T23:06:51.059Z,18.40
2022-08-12T23:09:44.751Z,18.30
2022-08-12T23:12:53.217Z,18.30
2022-08-12T23:15:20.734Z,18.20
2022-08-12T23:17:50.231Z,18.20
2022-08-12T23:20:22.534Z,18.20
2022-08-12T23:22:56.053Z,18.10
2022-08-12T23:25:54.109Z,18.10
2022-08-12T23:32:01.834Z,18.00
2022-08-12T23:35:18.845Z,17.90
2022-08-12T23:38:02.007Z,17.70
2022-08-12T23:41:05.914Z,17.60
2022-08-12T23:47:09.327Z,17.50
2022-08-12T23:56:06.818Z,17.40
